sensor_id;sensor_type;location;lat;lon;timestamp;temperature;humidity
66629;DHT22;53532;53.084;6.352;2022-11-04T10:35:45;11.90;99.90
66629;DHT22;53532;53.084;6.352;2022-11-04T10:38:17;11.70;99.90
66629;DHT22;53532;53.084;6.352;2022-11-04T10:40:48;11.70;99.90
66629;DHT22;53532;53.084;6.352;2022-11-04T10:43:17;11.70;99.90
66629;DHT22;53532;53.084;6.352;2022-11-04T10:45:56;11.70;99.90
66629;DHT22;53532;53.084;6.352;2022-11-04T10:48:27;11.80;99.90
66629;DHT22;53532;53.084;6.352;2022-11-04T10:50:56;11.80;99.90
66629;DHT22;53532;53.084;6.352;2022-11-04T10:53:25;11.80;99.90
66629;DHT22;53532;53.084;6.352;2022-11-04T10:55:56;11.90;99.90
66629;DHT22;53532;53.084;6.352;2022-11-04T10:58:26;12.00;99.90
66629;DHT22;53532;53.084;6.352;2022-11-04T11:00:52;12.00;99.90
66629;DHT22;53532;53.084;6.352;2022-11-04T11:03:29;12.10;99.90
66629;DHT22;53532;53.084;6.352;2022-11-04T11:06:10;12.30;99.90
66629;DHT22;53532;53.084;6.352;2022-11-04T11:08:39;12.40;99.90
66629;DHT22;53532;53.084;6.352;2022-11-04T11:11:06;12.50;99.90
66629;DHT22;53532;53.084;6.352;2022-11-04T11:13:35;12.60;99.90
66629;DHT22;53532;53.084;6.352;2022-11-04T11:16:08;12.60;99.90
66629;DHT22;53532;53.084;6.352;2022-11-04T11:18:34;12.60;99.90
66629;DHT22;53532;53.084;6.352;2022-11-04T11:21:05;12.70;99.90
66629;DHT22;53532;53.084;6.352;2022-11-04T11:23:35;12.60;99.90
66629;DHT22;53532;53.084;6.352;2022-11-04T11:26:04;12.60;99.90
66629;DHT22;53532;53.084;6.352;2022-11-04T11:28:31;12.50;99.90
66629;DHT22;53532;53.084;6.352;2022-11-04T11:31:03;12.40;99.90
66629;DHT22;53532;53.084;6.352;2022-11-04T11:33:32;12.30;99.90
66629;DHT22;53532;53.084;6.352;2022-11-04T11:36:01;12.20;99.90
66629;DHT22;53532;53.084;6.352;2022-11-04T11:38:30;12.20;99.90
66629;DHT22;53532;53.084;6.352;2022-11-04T11:41:05;12.20;99.90
66629;DHT22;53532;53.084;6.352;2022-11-04T11:43:33;12.20;99.90
66629;DHT22;53532;53.084;6.352;2022-11-04T11:45:59;12.20;99.90
66629;DHT22;53532;53.084;6.352;2022-11-04T11:48:27;12.10;99.90
66629;DHT22;53532;53.084;6.352;2022-11-04T11:50:55;12.10;99.90
66629;DHT22;53532;53.084;6.352;2022-11-04T11:53:25;12.20;99.90
66629;DHT22;53532;53.084;6.352;2022-11-04T11:56:01;12.20;99.90
66629;DHT22;53532;53.084;6.352;2022-11-04T11:58:36;12.20;99.90
66629;DHT22;53532;53.084;6.352;2022-11-04T12:01:10;12.30;99.90
66629;DHT22;53532;53.084;6.352;2022-11-04T12:03:42;12.30;99.90
66629;DHT22;53532;53.084;6.352;2022-11-04T12:06:21;12.30;99.90
66629;DHT22;53532;53.084;6.352;2022-11-04T12:09:07;12.30;99.90
66629;DHT22;53532;53.084;6.352;2022-11-04T12:11:48;12.30;99.90
66629;DHT22;53532;53.084;6.352;2022-11-04T12:14:23;12.40;99.90
66629;DHT22;53532;53.084;6.352;2022-11-04T12:16:57;12.40;99.90
66629;DHT22;53532;53.084;6.352;2022-11-04T12:19:39;12.40;99.90
66629;DHT22;53532;53.084;6.352;2022-11-04T12:22:17;12.40;99.90
66629;DHT22;53532;53.084;6.352;2022-11-04T12:24:50;12.40;99.90
66629;DHT22;53532;53.084;6.352;2022-11-04T12:27:29;12.40;99.90
66629;DHT22;53532;53.084;6.352;2022-11-04T12:30:05;12.30;99.90
66629;DHT22;53532;53.084;6.352;2022-11-04T12:32:50;12.30;99.90
66629;DHT22;53532;53.084;6.352;2022-11-04T12:35:38;12.30;99.90
66629;DHT22;53532;53.084;6.352;2022-11-04T12:38:29;12.30;99.90
66629;DHT22;53532;53.084;6.352;2022-11-04T12:41:01;12.20;99.90
66629;DHT22;53532;53.084;6.352;2022-11-04T12:43:35;12.30;99.90
66629;DHT22;53532;53.084;6.352;2022-11-04T12:46:10;12.30;99.90
66629;DHT22;53532;53.084;6.352;2022-11-04T12:49:15;12.30;99.90
66629;DHT22;53532;53.084;6.352;2022-11-04T12:51:51;12.30;99.90
66629;DHT22;53532;53.084;6.352;2022-11-04T12:54:30;12.30;99.90
66629;DHT22;53532;53.084;6.352;2022-11-04T12:57:10;12.30;99.90
66629;DHT22;53532;53.084;6.352;2022-11-04T13:00:00;12.30;99.90
66629;DHT22;53532;53.084;6.352;2022-11-04T13:02:31;12.30;99.90
66629;DHT22;53532;53.084;6.352;2022-11-04T13:05:02;12.30;99.90
66629;DHT22;53532;53.084;6.352;2022-11-04T13:07:32;12.30;99.90
66629;DHT22;53532;53.084;6.352;2022-11-04T13:10:02;12.20;99.90
66629;DHT22;53532;53.084;6.352;2022-11-04T13:12:31;12.20;99.90
66629;DHT22;53532;53.084;6.352;2022-11-04T13:15:00;12.20;99.90
66629;DHT22;53532;53.084;6.352;2022-11-04T13:17:32;12.20;99.90
66629;DHT22;53532;53.084;6.352;2022-11-04T13:20:02;12.20;99.90
66629;DHT22;53532;53.084;6.352;2022-11-04T13:22:32;12.20;99.90
66629;DHT22;53532;53.084;6.352;2022-11-04T13:25:03;12.10;99.90
66629;DHT22;53532;53.084;6.352;2022-11-04T13:27:32;12.10;99.90
66629;DHT22;53532;53.084;6.352;2022-11-04T13:30:04;12.10;99.90
66629;DHT22;53532;53.084;6.352;2022-11-04T13:32:36;12.10;99.90
66629;DHT22;53532;53.084;6.352;2022-11-04T13:35:09;12.10;99.90
66629;DHT22;53532;53.084;6.352;2022-11-04T13:37:42;12.10;99.90
66629;DHT22;53532;53.084;6.352;2022-11-04T13:40:11;12.20;99.90
66629;DHT22;53532;53.084;6.352;2022-11-04T13:46:01;12.10;99.90
66629;DHT22;53532;53.084;6.352;2022-11-04T13:48:30;12.10;99.90
66629;DHT22;53532;53.084;6.352;2022-11-04T13:50:59;12.10;99.90
66629;DHT22;53532;53.084;6.352;2022-11-04T13:53:44;12.10;99.90
66629;DHT22;53532;53.084;6.352;2022-11-04T13:56:25;12.10;99.90
66629;DHT22;53532;53.084;6.352;2022-11-04T13:58:52;12.10;99.90
66629;DHT22;53532;53.084;6.352;2022-11-04T14:01:27;12.10;99.90
66629;DHT22;53532;53.084;6.352;2022-11-04T14:04:02;12.10;99.90
66629;DHT22;53532;53.084;6.352;2022-11-04T14:06:54;12.10;99.90
66629;DHT22;53532;53.084;6.352;2022-11-04T14:12:29;12.20;99.90
66629;DHT22;53532;53.084;6.352;2022-11-04T14:15:06;12.20;99.90
66629;DHT22;53532;53.084;6.352;2022-11-04T14:18:00;12.30;99.90
66629;DHT22;53532;53.084;6.352;2022-11-04T14:20:30;12.30;99.90
66629;DHT22;53532;53.084;6.352;2022-11-04T14:22:57;12.30;99.90
66629;DHT22;53532;53.084;6.352;2022-11-04T14:25:35;12.20;99.90
66629;DHT22;53532;53.084;6.352;2022-11-04T14:28:17;12.10;99.90
66629;DHT22;53532;53.084;6.352;2022-11-04T14:30:47;12.00;99.90
66629;DHT22;53532;53.084;6.352;2022-11-04T14:33:33;11.90;99.90
66629;DHT22;53532;53.084;6.352;2022-11-04T14:36:29;11.80;99.90
66629;DHT22;53532;53.084;6.352;2022-11-04T14:38:59;11.70;99.90
66629;DHT22;53532;53.084;6.352;2022-11-04T14:44:17;11.60;99.90
66629;DHT22;53532;53.084;6.352;2022-11-04T14:46:47;11.50;99.90
66629;DHT22;53532;53.084;6.352;2022-11-04T14:49:34;11.40;99.90
66629;DHT22;53532;53.084;6.352;2022-11-04T14:52:02;11.40;99.90
66629;DHT22;53532;53.084;6.352;2022-11-04T14:54:31;11.30;99.90
66629;DHT22;53532;53.084;6.352;2022-11-04T14:57:08;11.30;99.90
66629;DHT22;53532;53.084;6.352;2022-11-04T14:59:37;11.20;99.90
66629;DHT22;53532;53.084;6.352;2022-11-04T15:02:03;11.20;99.90
66629;DHT22;53532;53.084;6.352;2022-11-04T15:04:29;11.10;99.90
66629;DHT22;53532;53.084;6.352;2022-11-04T15:06:58;11.00;99.90
66629;DHT22;53532;53.084;6.352;2022-11-04T15:09:27;10.90;99.90
66629;DHT22;53532;53.084;6.352;2022-11-04T15:12:03;10.90;99.90
66629;DHT22;53532;53.084;6.352;2022-11-04T15:14:49;10.90;99.90
66629;DHT22;53532;53.084;6.352;2022-11-04T15:17:18;10.80;99.90
66629;DHT22;53532;53.084;6.352;2022-11-04T15:19:47;10.70;99.90
66629;DHT22;53532;53.084;6.352;2022-11-04T15:22:14;10.70;99.90
66629;DHT22;53532;53.084;6.352;2022-11-04T15:24:41;10.60;99.90
66629;DHT22;53532;53.084;6.352;2022-11-04T15:27:12;10.60;99.90
66629;DHT22;53532;53.084;6.352;2022-11-04T15:29:39;10.60;99.90
66629;DHT22;53532;53.084;6.352;2022-11-04T15:32:05;10.50;99.90
66629;DHT22;53532;53.084;6.352;2022-11-04T15:34:32;10.50;99.90
66629;DHT22;53532;53.084;6.352;2022-11-04T15:37:00;10.40;99.90
66629;DHT22;53532;53.084;6.352;2022-11-04T15:39:31;10.30;99.90
